createdAt,value
2024-01-09T00:00:25.000Z,13.7
2024-01-09T00:03:53.000Z,13.1
2024-01-09T00:07:21.000Z,9.6
2024-01-09T00:10:49.000Z,10.8
2024-01-09T00:14:18.000Z,15.7
2024-01-09T00:17:46.000Z,15.8
2024-01-09T00:21:14.000Z,12.7
2024-01-09T00:24:42.000Z,13
2024-01-09T00:28:10.000Z,14.3
2024-01-09T00:30:53.000Z,13.5
2024-01-09T00:34:21.000Z,11.1
2024-01-09T00:37:50.000Z,15.3
2024-01-09T00:41:18.000Z,13.2
2024-01-09T00:44:46.000Z,13.6
2024-01-09T00:48:14.000Z,14.2
2024-01-09T00:51:43.000Z,11.4
2024-01-09T00:55:11.000Z,12.8
2024-01-09T00:58:39.000Z,14.8
2024-01-09T01:02:07.000Z,12.6
2024-01-09T01:05:35.000Z,10.1
2024-01-09T01:08:19.000Z,9.8
2024-01-09T01:11:47.000Z,12.9
2024-01-09T01:15:15.000Z,13.8
2024-01-09T01:18:43.000Z,10.5
2024-01-09T01:22:11.000Z,8.8
2024-01-09T01:25:39.000Z,12.3
2024-01-09T01:29:07.000Z,13.6
2024-01-09T01:32:35.000Z,12.9
2024-01-09T01:36:04.000Z,8.5
2024-01-09T01:39:32.000Z,9.8
2024-01-09T01:42:59.000Z,13.7
2024-01-09T01:45:43.000Z,7.9
2024-01-09T01:49:12.000Z,12.2
2024-01-09T01:52:40.000Z,9.7
2024-01-09T01:56:08.000Z,13
2024-01-09T01:59:36.000Z,9.8
2024-01-09T02:03:04.000Z,11.3
2024-01-09T02:06:32.000Z,11.7
2024-01-09T02:10:00.000Z,13.5
2024-01-09T02:23:47.000Z,8.2
2024-01-09T02:27:15.000Z,11
2024-01-09T02:30:43.000Z,9.9
2024-01-09T02:34:11.000Z,10.9
2024-01-09T02:37:39.000Z,13
2024-01-09T02:41:07.000Z,6.9
2024-01-09T02:44:36.000Z,8.9
2024-01-09T02:48:04.000Z,10.8
2024-01-09T02:51:32.000Z,4.8
2024-01-09T02:55:00.000Z,6.8
2024-01-09T02:58:28.000Z,10.1
2024-01-09T03:01:12.000Z,5.3
2024-01-09T03:04:40.000Z,11.3
2024-01-09T03:08:08.000Z,8.9
2024-01-09T03:11:36.000Z,11.6
2024-01-09T03:15:04.000Z,11
2024-01-09T03:18:32.000Z,11.3
2024-01-09T03:22:00.000Z,8.2
2024-01-09T03:25:28.000Z,11.4
2024-01-09T03:28:56.000Z,10.9
2024-01-09T03:32:24.000Z,10.9
2024-01-09T03:35:52.000Z,11.7
2024-01-09T03:38:36.000Z,10.1
2024-01-09T03:42:04.000Z,10.7
2024-01-09T03:45:32.000Z,10.8
2024-01-09T03:49:00.000Z,4.6
2024-01-09T03:52:28.000Z,8.9
2024-01-09T03:55:56.000Z,8.2
2024-01-09T03:59:24.000Z,10.8
2024-01-09T04:02:52.000Z,9.7
2024-01-09T04:06:22.000Z,8.1
2024-01-09T04:09:50.000Z,12.3
2024-01-09T04:13:19.000Z,7.8
2024-01-09T04:16:03.000Z,10.6
2024-01-09T04:19:31.000Z,11.1
2024-01-09T04:22:59.000Z,10.2
2024-01-09T04:26:27.000Z,10.5
2024-01-09T04:29:55.000Z,11
2024-01-09T04:33:24.000Z,11.2
2024-01-09T04:36:52.000Z,11.7
2024-01-09T04:40:20.000Z,8.4
2024-01-09T04:43:48.000Z,10.9
2024-01-09T04:47:16.000Z,12.3
2024-01-09T04:50:45.000Z,11.2
2024-01-09T04:53:28.000Z,9.5
2024-01-09T04:56:56.000Z,8.8
2024-01-09T05:00:25.000Z,9.4
2024-01-09T05:03:53.000Z,9.9
2024-01-09T05:07:21.000Z,10.4
2024-01-09T05:10:50.000Z,12.6
2024-01-09T05:14:18.000Z,10.4
2024-01-09T05:17:45.000Z,9.8
2024-01-09T05:21:14.000Z,9.8
2024-01-09T05:24:42.000Z,7.4
2024-01-09T05:28:10.000Z,9.4
2024-01-09T05:30:54.000Z,12.3
2024-01-09T05:34:22.000Z,12.9
2024-01-09T05:37:50.000Z,13.8
2024-01-09T05:41:34.000Z,10.4
2024-01-09T05:45:02.000Z,12.3
2024-01-09T05:48:30.000Z,12.6
2024-01-09T05:51:59.000Z,12
2024-01-09T05:55:27.000Z,11.2
2024-01-09T05:58:56.000Z,11.5
2024-01-09T06:02:23.000Z,11
2024-01-09T06:05:52.000Z,8.3
2024-01-09T06:08:36.000Z,11
2024-01-09T06:12:04.000Z,10.2
2024-01-09T06:15:35.000Z,11.3
2024-01-09T06:19:03.000Z,12.3
2024-01-09T06:22:31.000Z,12.2
2024-01-09T06:25:59.000Z,12.2
2024-01-09T06:29:27.000Z,12.8
2024-01-09T06:32:55.000Z,12.4
2024-01-09T06:36:23.000Z,9.3
2024-01-09T06:39:53.000Z,13.5
2024-01-09T06:43:21.000Z,13
2024-01-09T06:46:04.000Z,13.2
2024-01-09T06:49:33.000Z,13.5
2024-01-09T06:53:01.000Z,13.3
2024-01-09T06:56:29.000Z,13.7
2024-01-09T06:59:57.000Z,10.7
2024-01-09T07:03:25.000Z,14.2
2024-01-09T07:06:53.000Z,12.9
2024-01-09T07:10:21.000Z,13.6
2024-01-09T07:13:49.000Z,12.9
2024-01-09T07:17:18.000Z,14.1
2024-01-09T07:20:46.000Z,12.9
2024-01-09T07:23:30.000Z,12.5
2024-01-09T07:26:58.000Z,12.9
2024-01-09T07:30:28.000Z,12
2024-01-09T07:33:56.000Z,13.2
2024-01-09T07:37:25.000Z,10.4
2024-01-09T07:40:53.000Z,13.8
2024-01-09T07:44:21.000Z,15
2024-01-09T07:47:49.000Z,15.3
2024-01-09T07:51:18.000Z,10.2
2024-01-09T07:54:46.000Z,15.1
2024-01-09T07:58:14.000Z,12.5
2024-01-09T08:00:57.000Z,11.7
2024-01-09T08:04:25.000Z,10
2024-01-09T08:07:53.000Z,12.1
2024-01-09T08:11:21.000Z,13.7
2024-01-09T08:14:50.000Z,10.2
2024-01-09T08:18:18.000Z,12.9
2024-01-09T08:21:47.000Z,12.8
2024-01-09T08:25:15.000Z,18
2024-01-09T08:28:43.000Z,16.6
2024-01-09T08:32:11.000Z,14.8
2024-01-09T08:37:47.000Z,15.2
2024-01-09T08:40:24.000Z,14.9
2024-01-09T08:43:52.000Z,12.2
2024-01-09T08:47:20.000Z,17.8
2024-01-09T08:50:49.000Z,11
2024-01-09T08:54:16.000Z,14.8
2024-01-09T08:57:44.000Z,11.8
2024-01-09T09:01:12.000Z,14.2
2024-01-09T09:04:40.000Z,12.7
2024-01-09T09:08:08.000Z,13.5
2024-01-09T09:11:36.000Z,14.5
2024-01-09T09:15:04.000Z,14.2
2024-01-09T09:17:47.000Z,10.3
2024-01-09T09:21:16.000Z,14.4
2024-01-09T09:24:44.000Z,14.8
2024-01-09T09:28:12.000Z,18.1
2024-01-09T09:33:48.000Z,13
2024-01-09T09:37:16.000Z,13.5
2024-01-09T09:40:44.000Z,12.7
2024-01-09T09:44:12.000Z,12.7
2024-01-09T09:47:40.000Z,13.8
2024-01-09T09:51:09.000Z,15.9
2024-01-09T09:54:37.000Z,14
2024-01-09T09:57:15.000Z,13
2024-01-09T10:00:43.000Z,13.1
2024-01-09T10:04:11.000Z,13.8
2024-01-09T10:07:39.000Z,13.9
2024-01-09T10:11:11.000Z,9.6
2024-01-09T10:14:39.000Z,14.8
2024-01-09T10:18:07.000Z,7.5
2024-01-09T10:21:36.000Z,13.9
2024-01-09T10:25:04.000Z,17.9
2024-01-09T10:28:32.000Z,15.3
2024-01-09T10:32:00.000Z,13.6
2024-01-09T10:34:43.000Z,9.5
2024-01-09T10:38:11.000Z,15.5
2024-01-09T10:41:39.000Z,8.9
2024-01-09T10:45:08.000Z,14
2024-01-09T10:48:36.000Z,7.6
2024-01-09T10:52:04.000Z,10.4
2024-01-09T10:55:32.000Z,8.1
2024-01-09T10:59:00.000Z,5.5
2024-01-09T11:02:28.000Z,13.8
2024-01-09T11:05:57.000Z,12.1
2024-01-09T11:09:25.000Z,9.3
2024-01-09T11:12:08.000Z,9.2
2024-01-09T11:15:36.000Z,11.9
2024-01-09T11:19:04.000Z,5.1
2024-01-09T11:22:32.000Z,10.6
2024-01-09T11:26:00.000Z,18
2024-01-09T11:29:28.000Z,11.5
2024-01-09T11:32:57.000Z,12.6
2024-01-09T11:36:25.000Z,15
2024-01-09T11:39:53.000Z,14.9
2024-01-09T11:43:21.000Z,6.2
2024-01-09T11:46:49.000Z,12.4
2024-01-09T11:49:33.000Z,8.1
2024-01-09T11:53:01.000Z,11.8
2024-01-09T11:56:29.000Z,12.3
2024-01-09T11:59:57.000Z,11.8
2024-01-09T12:03:25.000Z,8.8
2024-01-09T12:06:54.000Z,8.8
2024-01-09T12:10:22.000Z,14
2024-01-09T12:13:54.000Z,10
2024-01-09T12:17:22.000Z,8.9
2024-01-09T12:20:50.000Z,8.4
2024-01-09T12:24:19.000Z,9.5
2024-01-09T12:27:05.000Z,10.5
2024-01-09T12:30:34.000Z,11.2
2024-01-09T12:34:02.000Z,9.8
2024-01-09T12:37:30.000Z,9
2024-01-09T12:40:58.000Z,6.1
2024-01-09T12:44:26.000Z,9.8
2024-01-09T12:47:54.000Z,9
2024-01-09T12:51:23.000Z,9.2
2024-01-09T12:54:51.000Z,6.3
2024-01-09T12:58:26.000Z,7.5
2024-01-09T13:01:54.000Z,9.2
2024-01-09T13:04:37.000Z,7.8
2024-01-09T13:08:05.000Z,9.1
2024-01-09T13:11:33.000Z,8.8
2024-01-09T13:15:03.000Z,8.1
2024-01-09T13:18:31.000Z,7.4
2024-01-09T13:25:33.000Z,8.6
2024-01-09T13:32:47.000Z,6.5
2024-01-09T13:36:16.000Z,8.5
2024-01-09T13:39:45.000Z,7.7
2024-01-09T13:42:28.000Z,11.6
2024-01-09T13:45:57.000Z,11.4
2024-01-09T13:49:25.000Z,10.2
2024-01-09T13:52:56.000Z,9.1
2024-01-09T13:56:24.000Z,11.6
2024-01-09T13:59:52.000Z,7.5
2024-01-09T14:03:34.000Z,8.6
2024-01-09T14:07:02.000Z,9.3
2024-01-09T14:10:30.000Z,8.4
2024-01-09T14:13:59.000Z,10.6
2024-01-09T14:17:27.000Z,6.3
2024-01-09T14:20:10.000Z,12.4
2024-01-09T14:23:38.000Z,8.8
2024-01-09T14:27:06.000Z,9.5
2024-01-09T14:30:34.000Z,8.9
2024-01-09T14:34:02.000Z,7.8
2024-01-09T14:37:30.000Z,10.7
2024-01-09T14:40:58.000Z,11
2024-01-09T14:44:26.000Z,12.8
2024-01-09T14:47:54.000Z,9.3
2024-01-09T14:51:22.000Z,9.9
2024-01-09T14:54:50.000Z,12.2
2024-01-09T14:57:34.000Z,14.3
2024-01-09T15:01:02.000Z,13.6
2024-01-09T15:04:30.000Z,12.8
2024-01-09T15:07:58.000Z,11.7
2024-01-09T15:11:28.000Z,9.5
2024-01-09T15:14:56.000Z,10.3
2024-01-09T15:18:24.000Z,13.4
2024-01-09T15:21:52.000Z,12.8
2024-01-09T15:25:20.000Z,13.1
2024-01-09T15:28:48.000Z,13.9
2024-01-09T15:32:16.000Z,11.6
2024-01-09T15:35:00.000Z,13.5
2024-01-09T15:38:28.000Z,12.2
2024-01-09T15:41:56.000Z,14.4
2024-01-09T15:45:24.000Z,15.6
2024-01-09T15:48:52.000Z,12.7
2024-01-09T15:52:20.000Z,14.8
2024-01-09T15:55:48.000Z,14.5
2024-01-09T15:59:17.000Z,12.1
2024-01-09T16:02:45.000Z,16.4
2024-01-09T16:06:13.000Z,16.6
2024-01-09T16:09:41.000Z,15.3
2024-01-09T16:12:24.000Z,17.7
2024-01-09T16:15:52.000Z,14.4
2024-01-09T16:19:20.000Z,15.2
2024-01-09T16:22:48.000Z,16.4
2024-01-09T16:26:16.000Z,13.5
2024-01-09T16:29:44.000Z,17.3
2024-01-09T16:33:13.000Z,12.3
2024-01-09T16:36:41.000Z,15.9
2024-01-09T16:40:09.000Z,17.5
2024-01-09T16:43:37.000Z,10.7
2024-01-09T16:47:05.000Z,14.7
2024-01-09T16:49:48.000Z,14.7
2024-01-09T16:53:19.000Z,16.9
2024-01-09T16:56:47.000Z,13.9
2024-01-09T17:00:15.000Z,17
2024-01-09T17:03:43.000Z,16.6
2024-01-09T17:07:11.000Z,16
2024-01-09T17:10:38.000Z,14.9
2024-01-09T17:14:07.000Z,17.9
2024-01-09T17:17:35.000Z,16.1
2024-01-09T17:21:03.000Z,16.9
2024-01-09T17:24:31.000Z,19.9
2024-01-09T17:27:14.000Z,18.7
2024-01-09T17:30:42.000Z,17.1
2024-01-09T17:34:11.000Z,20
2024-01-09T17:37:39.000Z,17.6
2024-01-09T17:41:07.000Z,17.9
2024-01-09T17:44:36.000Z,21
2024-01-09T17:48:04.000Z,21.5
2024-01-09T17:51:32.000Z,21.6
2024-01-09T17:54:59.000Z,22.6
2024-01-09T17:58:27.000Z,18.6
2024-01-09T18:01:56.000Z,20.4
2024-01-09T18:04:39.000Z,22.2
2024-01-09T18:08:08.000Z,16.5
2024-01-09T18:11:37.000Z,18
2024-01-09T18:15:05.000Z,21.7
2024-01-09T18:18:33.000Z,19.6
2024-01-09T18:22:01.000Z,22.6
2024-01-09T18:25:29.000Z,20.6
2024-01-09T18:29:02.000Z,26
2024-01-09T18:32:38.000Z,25.8
2024-01-09T18:36:07.000Z,22.1
2024-01-09T18:39:35.000Z,22.8
2024-01-09T18:42:18.000Z,26.2
2024-01-09T18:45:46.000Z,23.3
2024-01-09T18:49:14.000Z,21.5
2024-01-09T18:52:42.000Z,23.8
2024-01-09T18:56:10.000Z,25.4
2024-01-09T18:59:39.000Z,18.8
2024-01-09T19:03:07.000Z,26.5
2024-01-09T19:06:36.000Z,20.2
2024-01-09T19:10:04.000Z,25.3
2024-01-09T19:13:32.000Z,26
2024-01-09T19:17:01.000Z,26.6
2024-01-09T19:19:44.000Z,22.8
2024-01-09T19:23:12.000Z,24.1
2024-01-09T19:26:40.000Z,25
2024-01-09T19:30:08.000Z,27
2024-01-09T19:33:36.000Z,27.8
2024-01-09T19:37:05.000Z,24.4
2024-01-09T19:40:33.000Z,26.5
2024-01-09T19:44:02.000Z,25.8
2024-01-09T19:47:30.000Z,31.2
2024-01-09T19:50:59.000Z,31.3
2024-01-09T19:54:26.000Z,28.6
2024-01-09T19:57:10.000Z,28
2024-01-09T20:00:38.000Z,30.4
2024-01-09T20:04:06.000Z,27.3
2024-01-09T20:07:34.000Z,29.5
2024-01-09T20:11:02.000Z,32.7
2024-01-09T20:14:31.000Z,24.1
2024-01-09T20:17:58.000Z,27.2
2024-01-09T20:21:26.000Z,31.2
2024-01-09T20:24:54.000Z,30.9
2024-01-09T20:28:23.000Z,27.9
2024-01-09T20:31:51.000Z,29.4
2024-01-09T20:34:35.000Z,25.6
2024-01-09T20:38:03.000Z,29.5
2024-01-09T20:41:31.000Z,30.9
2024-01-09T20:44:59.000Z,30.5
2024-01-09T20:48:27.000Z,34.6
2024-01-09T20:51:56.000Z,24.5
2024-01-09T20:55:24.000Z,30
2024-01-09T20:58:52.000Z,35.4
2024-01-09T21:02:20.000Z,35
2024-01-09T21:05:48.000Z,28
2024-01-09T21:09:16.000Z,32.6
2024-01-09T21:11:59.000Z,30.2
2024-01-09T21:15:27.000Z,29.1
2024-01-09T21:18:55.000Z,34.1
2024-01-09T21:22:23.000Z,29.5
2024-01-09T21:25:51.000Z,30.7
2024-01-09T21:29:19.000Z,32.1
2024-01-09T21:32:47.000Z,26.4
2024-01-09T21:36:16.000Z,30.2
2024-01-09T21:39:44.000Z,29.9
2024-01-09T21:43:12.000Z,32.4
2024-01-09T21:46:41.000Z,24.9
2024-01-09T21:49:24.000Z,27.3
2024-01-09T21:52:52.000Z,27.6
2024-01-09T21:56:20.000Z,33.5
2024-01-09T21:59:48.000Z,31.6
2024-01-09T22:03:16.000Z,32.6
2024-01-09T22:06:45.000Z,25.9
2024-01-09T22:10:13.000Z,21.6
2024-01-09T22:13:41.000Z,32.6
2024-01-09T22:17:10.000Z,33.9
2024-01-09T22:20:38.000Z,33.2
2024-01-09T22:24:06.000Z,27
2024-01-09T22:26:49.000Z,31
2024-01-09T22:30:17.000Z,29.1
2024-01-09T22:33:50.000Z,33
2024-01-09T22:37:18.000Z,30.9
2024-01-09T22:40:46.000Z,22.4
2024-01-09T22:44:14.000Z,35.6
2024-01-09T22:47:42.000Z,34.2
2024-01-09T22:51:10.000Z,35.8
2024-01-09T22:54:38.000Z,32.4
2024-01-09T22:58:13.000Z,34
2024-01-09T23:01:41.000Z,33.9
2024-01-09T23:04:25.000Z,27.2
2024-01-09T23:07:53.000Z,34
2024-01-09T23:11:22.000Z,33.7
2024-01-09T23:14:50.000Z,31.1
2024-01-09T23:18:18.000Z,33.8
2024-01-09T23:21:46.000Z,18.7
2024-01-09T23:25:14.000Z,32.5
2024-01-09T23:28:42.000Z,31.1
2024-01-09T23:32:10.000Z,31.1
2024-01-09T23:35:38.000Z,33.6
2024-01-09T23:39:06.000Z,33
2024-01-09T23:41:49.000Z,32.4
2024-01-09T23:45:17.000Z,35.9
2024-01-09T23:48:45.000Z,30.5
2024-01-09T23:52:14.000Z,24.5
2024-01-09T23:55:42.000Z,33.2
2024-01-09T23:59:10.000Z,35.2
